AirNav   Air Wisconsin Up To $57,000 Bonus
 
 894 users online  

5F4 Homer Municipal Airport
Homer, Louisiana, USA

GOING TO HOMER?


FAA INFORMATION EFFECTIVE 16 JUNE 2022

Location

FAA Identifier: 5F4
Lat/Long: 32-47-18.6290N 093-00-13.1790W
32-47.310483N 093-00.219650W
32.7885081,-93.0036608
(estimated)
Elevation: 244 ft. / 74.4 m (surveyed)
Variation: 02E (2005)
From city: 3 miles E of HOMER, LA
Time zone: UTC -5 (UTC -6 during Standard Time)
Zip code: 71040

Airport Operations

Airport use: Open to the public
Activation date: 01/1970
Control tower: no
ARTCC: FORT WORTH CENTER
FSS: DE RIDDER FLIGHT SERVICE STATION
NOTAMs facility: DRI (NOTAM-D service available)
Attendance: UNATNDD
Wind indicator: lighted
Segmented circle: yes
Lights: REIL RWY 12/30 AND MIRL RWY 12/30 PRESET LOW INTST DUSK-DAWN; TO INCR INTST ACTVT - CTAF.
Beacon: white-green (lighted land airport)
Operates sunset to sunrise.

Airport Communications

CTAF: 122.9
WX AWOS-3PT at MNE (17 nm SW): 119.325 (318-371-7874)

Airport Services

Parking: tiedowns

Runway Information

Runway 12/30

Dimensions: 3199 x 60 ft. / 975 x 18 m
Surface: asphalt, in good condition
EXCESSIVE RWY EDGE LIPS EXIST AFTER OVERLAY PROJECT. PILOTS ARE CAUTIONED TO STAY IN THE CTR OF THE RWY & TWY.
Weight bearing capacity: 
Single wheel: 12.0
Runway edge lights: medium intensity
RUNWAY 12  RUNWAY 30
Latitude: 32-47.452267N32-47.168867N
Longitude: 093-00.482267W092-59.955433W
Elevation: 244.0 ft.229.0 ft.
Traffic pattern: leftleft
Runway heading: 120 magnetic, 122 true300 magnetic, 302 true
Markings: basic, in fair conditionbasic, in fair condition
Visual slope indicator: 2-light PAPI on left (3.00 degrees glide path)
PAPI OTS INDEFLY.
2-light PAPI on left (3.00 degrees glide path)
PAPI OTS INDEFLY.
Runway end identifier lights: yesyes
Touchdown point: yes, no lightsyes, no lights
Obstructions: 63 ft. trees, 356 ft. from runway, 183 ft. left of centerline, 2:1 slope to clear66 ft. trees, 461 ft. from runway, 283 ft. right of centerline, 3:1 slope to clear

Airport Ownership and Management from official FAA records

Ownership: Publicly-owned
Owner: CITY OF HOMER
400 EAST MAIN
HOMER, LA 71040
Phone 318-927-3555
Manager: JERRY WHITTON
550 AIRPORT LOOP, FIRE STATION
HOMER, LA 71040
Phone 318-225-0911

Airport Operational Statistics

Aircraft based on the field: 5
Single engine airplanes: 5
    
Aircraft operations: avg 33/week *
56% local general aviation
44% transient general aviation
* for 12-month period ending 31 October 2018

Additional Remarks

FOR CD CTC FORT WORTH ARTCC AT 817-858-7584.

Instrument Procedures

There are no published instrument procedures at 5F4.

Some nearby airports with instrument procedures:

KMNE - Minden Airport (17 nm SW)
KSPH - Springhill Airport (24 nm NW)
KRSN - Ruston Regional Airport (27 nm SE)
KELD - South Arkansas Regional Airport at Goodwin Field (28 nm N)
KAGO - Ralph C Weiser Field Airport (28 nm N)
 
Loc | Ops | Rwys | IFR | FBO | Links
Com | Nav | Svcs | Stats | Notes
Area around 5F4 (Homer Municipal Airport)
 
Road maps at: MapQuest Bing Google
 
Aerial photo
WARNING: Photo may not be current or correct
Aerial photo of 5F4 (Homer Municipal Airport)
Photo by Mark Burns
Photo taken 01-May-2006

Do you have a better or more recent aerial photo of Homer Municipal Airport that you would like to share? If so, please send us your photo.

 
Sectional chart

 
Airport distance calculator
Flying to Homer Municipal Airport? Find the distance to fly.

From to 5F4

Sunrise and sunset
Times for 02-Jul-2022
 Local
(UTC-5)
 Zulu
(UTC)
Morning civil twilight05:4010:40
Sunrise06:0911:09
Sunset20:2301:23
Evening civil twilight20:5201:52

Current date and time
Zulu (UTC)  02-Jul-2022 13:02:47
Local (UTC-5)  02-Jul-2022 08:02:47
 
METAR
KMNE 
17nm SW 
021255Z AUTO 00000KT 2SM RA BKN007 OVC010 24/24 A2999 RMK AO2 P0064 T02350235
KRSN 
27nm SE 
021255Z AUTO 16008KT 7SM OVC004 24/23 A3004 RMK AO2 P0001 T02430232
KELD 
27nm N 
021253Z AUTO 11005KT 5SM BR OVC009 23/23 A2999 RMK AO2 RAB04E28 CIG 006V011 SLP153 P0000 T02330228
KAGO 
28nm N 
021255Z AUTO 00000KT 10SM BKN019 BKN023 OVC028 24/23 A2997 RMK A01
TAF
KELD 
27nm N 
021148Z 0212/0312 VRB03KT 6SM -RA BKN007 FM021400 14006KT 4SM -TSRA OVC015CB FM022300 15006KT P6SM VCSH BKN025 FM030200 VRB03KT P6SM BKN025 BKN100 BKN250 FM030900 VRB05KT 6SM -RA BKN025 BKN100 BKN250
NOTAMs
Click for the latest NOTAMs
NOTAMs are issued by the DoD/FAA and will open in a separate window not controlled by AirNav.

 

 
 

Would you like to see your business listed on this page?

 If your business provides an interesting product or service to pilots, flight crews, aircraft, or users of the Homer Municipal Airport, you should consider listing it here.  To start the listing process, click on the button below
 
Add a business
 

Other Pages about Homer Municipal Airport

Update a link
 
Copyright © AirNav, LLC. All rights reserved. Privacy Policy  Contact